createdAt,value
2019-04-03T00:01:11.734Z,15.10
2019-04-03T00:03:41.795Z,15.10
2019-04-03T00:06:13.418Z,15.10
2019-04-03T00:08:43.790Z,15.10
2019-04-03T00:11:14.437Z,15.20
2019-04-03T00:13:44.972Z,15.10
2019-04-03T00:16:16.036Z,15.10
2019-04-03T00:18:47.565Z,15.10
2019-04-03T00:21:19.774Z,15.10
2019-04-03T00:23:52.155Z,15.10
2019-04-03T00:26:22.763Z,15.00
2019-04-03T00:28:52.889Z,15.10
2019-04-03T00:31:23.707Z,15.00
2019-04-03T00:33:54.135Z,15.00
2019-04-03T00:36:24.459Z,15.00
2019-04-03T00:38:54.945Z,14.90
2019-04-03T00:41:25.251Z,14.90
2019-04-03T00:43:55.471Z,14.80
2019-04-03T00:46:25.883Z,14.90
2019-04-03T00:48:56.347Z,14.90
2019-04-03T00:51:27.429Z,14.80
2019-04-03T00:53:58.218Z,14.80
2019-04-03T00:56:28.456Z,14.80
2019-04-03T00:58:58.619Z,14.90
2019-04-03T01:01:28.770Z,14.90
2019-04-03T01:03:59.125Z,14.90
2019-04-03T01:06:29.639Z,14.90
2019-04-03T01:09:00.068Z,15.00
2019-04-03T01:11:31.055Z,14.90
2019-04-03T01:14:01.840Z,14.80
2019-04-03T01:16:33.352Z,14.80
2019-04-03T01:19:05.814Z,14.80
2019-04-03T01:21:37.241Z,14.90
2019-04-03T01:24:08.480Z,14.80
2019-04-03T01:26:40.211Z,14.70
2019-04-03T01:29:12.586Z,14.60
2019-04-03T01:31:44.901Z,14.40
2019-04-03T01:34:17.207Z,14.40
2019-04-03T01:36:48.242Z,14.20
2019-04-03T01:39:21.028Z,13.90
2019-04-03T01:41:52.086Z,13.90
2019-04-03T01:44:24.325Z,13.80
2019-04-03T01:46:54.061Z,13.80
2019-04-03T01:49:24.080Z,13.80
2019-04-03T01:51:54.296Z,13.70
2019-04-03T01:54:24.361Z,13.80
2019-04-03T01:56:54.625Z,13.80
2019-04-03T01:59:24.732Z,13.70
2019-04-03T02:01:55.083Z,13.70
2019-04-03T02:04:25.541Z,13.50
2019-04-03T02:06:55.669Z,13.50
2019-04-03T02:09:25.754Z,13.40
2019-04-03T02:11:55.841Z,13.20
2019-04-03T02:14:25.805Z,13.10
2019-04-03T02:16:56.170Z,13.00
2019-04-03T02:19:26.667Z,13.00
2019-04-03T02:21:59.158Z,12.90
2019-04-03T02:24:31.067Z,12.90
2019-04-03T02:27:03.152Z,12.70
2019-04-03T02:29:33.287Z,12.60
2019-04-03T02:32:03.394Z,12.50
2019-04-03T02:34:35.432Z,12.50
2019-04-03T02:37:05.842Z,12.50
2019-04-03T02:39:36.416Z,12.60
2019-04-03T02:42:08.874Z,12.60
2019-04-03T02:44:38.757Z,12.60
2019-04-03T02:47:08.858Z,12.60
2019-04-03T02:49:41.336Z,12.40
2019-04-03T02:52:11.601Z,12.50
2019-04-03T02:54:42.976Z,12.40
2019-04-03T02:57:16.178Z,12.50
2019-04-03T02:59:45.877Z,12.50
2019-04-03T03:02:15.866Z,12.40
2019-04-03T03:04:46.176Z,12.30
2019-04-03T03:07:16.531Z,12.30
2019-04-03T03:09:48.036Z,12.20
2019-04-03T03:12:19.063Z,12.20
2019-04-03T03:14:49.987Z,12.20
2019-04-03T03:17:22.522Z,12.20
2019-04-03T03:19:53.633Z,12.20
2019-04-03T03:22:26.604Z,12.20
2019-04-03T03:24:59.830Z,12.00
2019-04-03T03:27:30.409Z,12.00
2019-04-03T03:30:01.154Z,11.90
2019-04-03T03:32:35.434Z,11.90
2019-04-03T03:35:12.539Z,11.80
2019-04-03T03:37:36.699Z,11.90
2019-04-03T03:40:07.173Z,11.90
2019-04-03T03:42:37.606Z,11.80
2019-04-03T03:45:09.634Z,11.90
2019-04-03T03:47:39.885Z,11.90
2019-04-03T03:50:10.122Z,11.90
2019-04-03T03:52:40.608Z,12.00
2019-04-03T03:55:10.626Z,11.90
2019-04-03T03:57:42.836Z,11.70
2019-04-03T04:00:14.504Z,11.70
2019-04-03T04:02:45.345Z,11.70
2019-04-03T04:05:20.020Z,11.70
2019-04-03T04:07:49.295Z,11.70
2019-04-03T04:10:23.947Z,11.60
2019-04-03T04:12:51.491Z,11.60
2019-04-03T04:15:21.643Z,11.50
2019-04-03T04:17:53.572Z,11.50
2019-04-03T04:20:26.771Z,11.50
2019-04-03T04:22:58.020Z,11.60
2019-04-03T04:25:31.463Z,11.60
2019-04-03T04:28:01.915Z,11.60
2019-04-03T04:30:33.639Z,11.60
2019-04-03T04:33:04.131Z,11.60
2019-04-03T04:35:35.258Z,11.70
2019-04-03T04:38:05.476Z,11.70
2019-04-03T04:40:35.604Z,11.60
2019-04-03T04:43:07.893Z,11.50
2019-04-03T04:45:38.220Z,11.60
2019-04-03T04:48:09.093Z,11.60
2019-04-03T04:50:39.190Z,11.70
2019-04-03T04:53:09.471Z,11.70
2019-04-03T04:55:39.832Z,11.70
2019-04-03T04:58:11.657Z,11.60
2019-04-03T05:00:42.618Z,11.60
2019-04-03T05:03:12.984Z,11.50
2019-04-03T05:05:43.574Z,11.40
2019-04-03T05:08:13.850Z,11.40
2019-04-03T05:11:16.335Z,11.30
2019-04-03T05:13:53.560Z,11.30
2019-04-03T05:16:32.407Z,11.30
2019-04-03T05:19:09.607Z,11.30
2019-04-03T05:21:35.071Z,11.30
2019-04-03T05:24:12.861Z,11.20
2019-04-03T05:26:38.960Z,11.20
2019-04-03T05:29:10.015Z,11.10
2019-04-03T05:31:39.900Z,11.10
2019-04-03T05:34:12.406Z,11.10
2019-04-03T05:36:42.639Z,11.10
2019-04-03T05:39:13.125Z,11.00
2019-04-03T05:41:43.548Z,11.00
2019-04-03T05:44:14.657Z,10.90
2019-04-03T05:46:44.936Z,11.00
2019-04-03T05:49:27.366Z,11.00
2019-04-03T05:52:00.278Z,11.10
2019-04-03T05:54:33.413Z,11.00
2019-04-03T05:57:11.903Z,11.10
2019-04-03T05:59:58.653Z,11.20
2019-04-03T06:02:47.679Z,11.30
2019-04-03T06:05:19.670Z,11.40
2019-04-03T06:07:52.858Z,11.60
2019-04-03T06:10:23.640Z,11.60
2019-04-03T06:12:57.014Z,11.70
2019-04-03T06:15:29.103Z,11.70
2019-04-03T06:17:59.565Z,11.80
2019-04-03T06:20:30.144Z,11.90
2019-04-03T06:23:01.716Z,11.90
2019-04-03T06:26:03.803Z,11.80
2019-04-03T06:28:35.890Z,11.80
2019-04-03T06:31:08.062Z,11.80
2019-04-03T06:33:39.575Z,11.90
2019-04-03T06:36:09.908Z,11.80
2019-04-03T06:38:40.877Z,11.60
2019-04-03T06:41:11.464Z,11.60
2019-04-03T06:43:44.803Z,11.40
2019-04-03T06:46:16.520Z,11.40
2019-04-03T06:48:47.105Z,11.60
2019-04-03T06:51:18.302Z,11.50
2019-04-03T06:53:48.686Z,11.50
2019-04-03T06:56:19.601Z,11.50
2019-04-03T06:58:49.958Z,11.60
2019-04-03T07:01:45.304Z,11.70
2019-04-03T07:04:36.170Z,11.60
2019-04-03T07:07:07.307Z,11.60
2019-04-03T07:09:38.354Z,11.50
2019-04-03T07:12:08.703Z,11.70
2019-04-03T07:14:39.191Z,11.80
2019-04-03T07:17:09.630Z,11.90
2019-04-03T07:19:42.168Z,12.00
2019-04-03T07:22:12.124Z,12.10
2019-04-03T07:24:41.989Z,12.20
2019-04-03T07:27:14.523Z,12.40
2019-04-03T07:29:44.401Z,12.60
2019-04-03T07:32:14.674Z,12.60
2019-04-03T07:34:44.742Z,12.60
2019-04-03T07:37:15.480Z,12.60
2019-04-03T07:39:49.123Z,12.60
2019-04-03T07:42:18.555Z,12.90
2019-04-03T07:44:48.606Z,13.20
2019-04-03T07:47:18.810Z,13.50
2019-04-03T07:49:48.771Z,13.60
2019-04-03T07:52:19.080Z,13.70
2019-04-03T07:54:50.598Z,13.80
2019-04-03T07:57:20.958Z,13.80
2019-04-03T07:59:53.088Z,14.00
2019-04-03T08:02:23.195Z,14.20
2019-04-03T08:04:59.160Z,14.50
2019-04-03T08:07:27.327Z,14.20
2019-04-03T08:09:58.727Z,14.20
2019-04-03T08:12:29.547Z,14.30
2019-04-03T08:14:59.768Z,14.20
2019-04-03T08:17:29.845Z,14.10
2019-04-03T08:19:59.995Z,14.10
2019-04-03T08:22:32.862Z,14.00
2019-04-03T08:25:02.527Z,13.90
2019-04-03T08:27:32.360Z,13.90
2019-04-03T08:30:03.085Z,13.90
2019-04-03T08:32:33.357Z,14.10
2019-04-03T08:35:19.387Z,14.00
2019-04-03T08:37:41.611Z,13.90
2019-04-03T08:40:11.864Z,13.80
2019-04-03T08:42:42.590Z,13.70
2019-04-03T08:45:13.282Z,13.60
2019-04-03T08:47:46.184Z,13.60
2019-04-03T08:50:16.123Z,13.50
2019-04-03T08:52:52.949Z,13.30
2019-04-03T08:55:23.119Z,13.30
2019-04-03T08:57:53.640Z,13.40
2019-04-03T09:00:25.352Z,13.50
2019-04-03T09:02:55.686Z,13.50
2019-04-03T09:05:26.118Z,13.50
2019-04-03T09:07:56.896Z,13.50
2019-04-03T09:10:27.260Z,13.70
2019-04-03T09:12:57.639Z,13.70
2019-04-03T09:15:28.638Z,13.50
2019-04-03T09:17:59.401Z,13.30
2019-04-03T09:20:30.391Z,13.50
2019-04-03T09:23:10.695Z,13.50
2019-04-03T09:25:47.191Z,13.70
2019-04-03T09:35:17.249Z,13.70
2019-04-03T09:37:56.281Z,13.80
2019-04-03T09:40:27.688Z,13.90
2019-04-03T09:42:58.587Z,14.20
2019-04-03T09:45:30.197Z,14.40
2019-04-03T09:48:00.405Z,14.40
2019-04-03T09:50:32.578Z,14.30
2019-04-03T09:53:18.847Z,14.20
2019-04-03T09:55:57.105Z,14.20
2019-04-03T09:58:27.733Z,14.40
2019-04-03T10:00:57.976Z,14.60
2019-04-03T10:03:30.495Z,14.70
2019-04-03T10:06:00.840Z,14.80
2019-04-03T10:08:31.028Z,14.90
2019-04-03T10:11:01.411Z,15.10
2019-04-03T10:13:31.403Z,15.10
2019-04-03T10:16:03.848Z,15.30
2019-04-03T10:18:33.819Z,15.20
2019-04-03T10:21:04.484Z,15.20
2019-04-03T10:23:34.654Z,15.30
2019-04-03T10:26:07.600Z,14.60
2019-04-03T10:28:37.101Z,14.40
2019-04-03T10:31:07.481Z,14.60
2019-04-03T10:33:37.981Z,14.80
2019-04-03T10:36:10.202Z,14.70
2019-04-03T10:38:42.673Z,14.90
2019-04-03T10:41:12.923Z,15.10
2019-04-03T10:43:44.258Z,15.40
2019-04-03T10:46:18.574Z,15.60
2019-04-03T10:48:51.144Z,15.70
2019-04-03T10:51:21.065Z,15.20
2019-04-03T10:53:52.428Z,15.10
2019-04-03T10:56:23.573Z,14.90
2019-04-03T10:58:53.937Z,15.00
2019-04-03T11:01:28.379Z,15.10
2019-04-03T11:03:59.367Z,15.10
2019-04-03T11:06:37.500Z,15.30
2019-04-03T11:09:10.645Z,15.40
2019-04-03T11:11:43.003Z,15.50
2019-04-03T11:14:13.303Z,15.30
2019-04-03T11:16:45.885Z,15.50
2019-04-03T11:19:15.844Z,15.60
2019-04-03T11:21:46.121Z,15.60
2019-04-03T11:24:16.851Z,15.50
2019-04-03T11:26:47.341Z,15.30
2019-04-03T11:29:18.520Z,15.20
2019-04-03T11:31:50.110Z,15.40
2019-04-03T11:34:20.039Z,15.60
2019-04-03T11:36:50.418Z,15.50
2019-04-03T11:39:23.507Z,15.60
2019-04-03T11:41:55.592Z,15.70
2019-04-03T11:44:26.113Z,15.70
2019-04-03T11:46:56.905Z,15.70
2019-04-03T11:49:27.450Z,15.80
2019-04-03T11:51:58.962Z,15.90
2019-04-03T11:54:29.735Z,16.10
2019-04-03T11:56:59.906Z,16.20
2019-04-03T11:59:29.922Z,16.40
2019-04-03T12:01:59.948Z,16.30
2019-04-03T12:04:30.181Z,16.50
2019-04-03T12:07:02.369Z,16.90
2019-04-03T12:09:32.958Z,17.30
2019-04-03T12:12:03.361Z,17.60
2019-04-03T12:14:33.376Z,16.70
2019-04-03T12:17:03.443Z,16.80
2019-04-03T12:19:36.806Z,17.10
2019-04-03T12:22:05.191Z,17.40
2019-04-03T12:24:35.094Z,16.90
2019-04-03T12:27:05.695Z,15.20
2019-04-03T12:29:35.635Z,14.90
2019-04-03T12:32:07.735Z,14.70
2019-04-03T12:34:38.665Z,14.60
2019-04-03T12:37:08.866Z,14.10
2019-04-03T12:39:38.935Z,13.90
2019-04-03T12:42:09.613Z,13.70
2019-04-03T12:44:39.891Z,13.70
2019-04-03T12:47:12.440Z,13.00
2019-04-03T12:49:41.731Z,12.90
2019-04-03T12:52:12.001Z,12.30
2019-04-03T12:54:42.281Z,12.40
2019-04-03T12:57:12.173Z,12.80
2019-04-03T12:59:42.508Z,12.60
2019-04-03T13:02:12.542Z,12.80
2019-04-03T13:04:43.099Z,12.60
2019-04-03T13:07:14.523Z,12.40
2019-04-03T13:09:45.543Z,12.30
2019-04-03T13:12:16.492Z,12.50
2019-04-03T13:14:49.093Z,12.80
2019-04-03T13:17:19.107Z,12.70
2019-04-03T13:19:49.960Z,13.10
2019-04-03T13:22:20.144Z,13.00
2019-04-03T13:24:50.603Z,12.50
2019-04-03T13:27:20.919Z,11.90
2019-04-03T13:29:51.560Z,11.80
2019-04-03T13:32:23.079Z,12.20
2019-04-03T13:34:53.911Z,12.60
2019-04-03T13:37:24.332Z,12.60
2019-04-03T13:39:54.498Z,12.50
2019-04-03T13:42:24.610Z,12.50
2019-04-03T13:44:57.956Z,12.40
2019-04-03T13:47:27.102Z,12.30
2019-04-03T13:49:58.527Z,12.20
2019-04-03T13:52:38.740Z,12.40
2019-04-03T13:55:01.600Z,12.20
2019-04-03T13:57:31.593Z,11.70
2019-04-03T14:00:11.305Z,11.50
2019-04-03T14:02:33.473Z,12.00
2019-04-03T14:05:04.613Z,12.10
2019-04-03T14:07:36.219Z,12.20
2019-04-03T14:10:07.990Z,12.50
2019-04-03T14:12:43.240Z,12.00
2019-04-03T14:15:11.166Z,12.00
2019-04-03T14:17:53.403Z,11.90
2019-04-03T14:20:18.816Z,11.70
2019-04-03T14:22:49.360Z,11.70
2019-04-03T14:25:22.523Z,11.50
2019-04-03T14:27:52.221Z,11.60
2019-04-03T14:30:22.545Z,11.70
2019-04-03T14:32:54.646Z,11.70
2019-04-03T14:38:02.063Z,11.70
2019-04-03T14:40:32.485Z,11.60
2019-04-03T14:43:04.169Z,11.60
2019-04-03T14:45:34.884Z,11.60
2019-04-03T14:48:18.740Z,11.10
2019-04-03T14:50:56.875Z,10.80
2019-04-03T14:56:17.445Z,10.90
2019-04-03T14:59:09.276Z,10.80
2019-04-03T15:01:40.597Z,10.30
2019-04-03T15:04:11.265Z,10.20
2019-04-03T15:06:41.358Z,10.20
2019-04-03T15:09:13.666Z,10.30
2019-04-03T15:11:43.303Z,10.00
2019-04-03T15:14:14.517Z,9.70
2019-04-03T15:17:13.617Z,9.70
2019-04-03T15:19:45.815Z,9.80
2019-04-03T15:22:16.894Z,9.90
2019-04-03T15:24:48.067Z,9.80
2019-04-03T15:27:19.337Z,9.20
2019-04-03T15:29:50.470Z,9.30
2019-04-03T15:32:21.955Z,9.30
2019-04-03T15:34:54.175Z,9.20
2019-04-03T15:37:32.490Z,9.00
2019-04-03T15:40:07.117Z,8.70
2019-04-03T15:42:40.309Z,8.80
2019-04-03T15:45:10.162Z,8.90
2019-04-03T15:47:45.147Z,9.00
2019-04-03T15:50:13.084Z,8.60
2019-04-03T15:52:46.056Z,8.70
2019-04-03T15:55:16.903Z,8.60
2019-04-03T15:57:47.875Z,8.50
2019-04-03T16:00:21.265Z,8.60
2019-04-03T16:02:51.491Z,8.70
2019-04-03T16:05:22.227Z,8.20
2019-04-03T16:08:01.907Z,8.10
2019-04-03T16:10:40.675Z,7.50
2019-04-03T16:19:27.366Z,7.00
2019-04-03T16:22:04.918Z,6.50
2019-04-03T16:24:39.556Z,6.40
2019-04-03T16:27:10.499Z,6.30
2019-04-03T16:29:46.321Z,6.30
2019-04-03T16:32:19.537Z,6.30
2019-04-03T16:34:49.713Z,6.20
2019-04-03T16:37:21.484Z,6.00
2019-04-03T16:39:51.852Z,6.10
2019-04-03T16:42:22.067Z,6.00
2019-04-03T16:44:52.184Z,6.00
2019-04-03T16:47:22.392Z,6.00
2019-04-03T16:49:55.322Z,6.20
2019-04-03T16:52:24.531Z,6.20
2019-04-03T16:54:54.517Z,6.30
2019-04-03T16:57:24.572Z,6.30
2019-04-03T16:59:55.418Z,6.20
2019-04-03T17:02:28.942Z,6.10
2019-04-03T17:04:57.431Z,6.10
2019-04-03T17:07:31.371Z,6.20
2019-04-03T17:10:01.650Z,6.00
2019-04-03T17:12:31.816Z,6.00
2019-04-03T17:15:03.634Z,6.00
2019-04-03T17:17:33.912Z,5.90
2019-04-03T17:20:09.389Z,5.90
2019-04-03T17:22:41.178Z,5.90
2019-04-03T17:25:11.747Z,5.80
2019-04-03T17:27:53.575Z,5.90
2019-04-03T17:30:15.912Z,5.90
2019-04-03T17:32:47.158Z,6.00
2019-04-03T17:35:17.392Z,6.00
2019-04-03T17:37:48.316Z,6.10
2019-04-03T17:40:18.754Z,6.20
2019-04-03T17:42:48.862Z,6.20
2019-04-03T17:45:19.459Z,6.30
2019-04-03T17:47:53.692Z,6.30
2019-04-03T17:50:24.352Z,6.20
2019-04-03T17:52:54.535Z,6.20
2019-04-03T17:55:27.985Z,6.20
2019-04-03T17:57:58.290Z,6.30
2019-04-03T18:00:29.449Z,6.30
2019-04-03T18:02:59.638Z,6.20
2019-04-03T18:05:29.758Z,6.00
2019-04-03T18:07:59.919Z,6.00
2019-04-03T18:10:30.213Z,6.00
2019-04-03T18:13:00.787Z,6.10
2019-04-03T18:15:35.216Z,6.10
2019-04-03T18:18:15.958Z,6.10
2019-04-03T18:20:46.456Z,6.00
2019-04-03T18:23:16.740Z,6.10
2019-04-03T18:25:49.436Z,6.20
2019-04-03T18:28:25.414Z,6.30
2019-04-03T18:30:55.554Z,6.40
2019-04-03T18:33:26.284Z,6.40
2019-04-03T18:35:57.284Z,6.40
2019-04-03T18:38:27.703Z,6.40
2019-04-03T18:40:58.804Z,6.40
2019-04-03T18:43:30.139Z,6.30
2019-04-03T18:46:00.441Z,6.30
2019-04-03T18:48:30.856Z,6.40
2019-04-03T18:51:05.677Z,6.50
2019-04-03T18:53:35.114Z,6.60
2019-04-03T18:56:05.880Z,6.40
2019-04-03T18:58:36.446Z,6.40
2019-04-03T19:01:07.186Z,6.40
2019-04-03T19:03:37.648Z,6.40
2019-04-03T19:06:08.936Z,6.60
2019-04-03T19:08:39.113Z,6.50
2019-04-03T19:11:10.321Z,6.50
2019-04-03T19:13:40.661Z,6.60
2019-04-03T19:16:10.735Z,6.50
2019-04-03T19:18:40.812Z,6.50
2019-04-03T19:21:23.759Z,6.60
2019-04-03T19:23:49.471Z,6.50
2019-04-03T19:26:18.761Z,6.60
2019-04-03T19:28:50.243Z,6.60
2019-04-03T19:31:21.248Z,6.70
2019-04-03T19:33:51.937Z,6.80
2019-04-03T19:36:22.438Z,6.90
2019-04-03T19:38:53.736Z,6.90
2019-04-03T19:41:43.317Z,6.90
2019-04-03T19:44:17.975Z,7.00
2019-04-03T19:46:49.517Z,6.80
2019-04-03T19:49:20.795Z,6.80
2019-04-03T19:51:50.926Z,6.80
2019-04-03T19:54:23.642Z,6.80
2019-04-03T19:56:56.271Z,6.70
2019-04-03T19:59:29.808Z,6.70
2019-04-03T20:01:58.978Z,6.60
2019-04-03T20:04:30.201Z,6.70
2019-04-03T20:07:00.365Z,6.70
2019-04-03T20:09:32.753Z,6.70
2019-04-03T20:12:07.172Z,6.60
2019-04-03T20:14:37.363Z,6.60
2019-04-03T20:17:07.943Z,6.60
2019-04-03T20:19:37.973Z,6.70
2019-04-03T20:22:08.532Z,6.70
2019-04-03T20:24:38.960Z,6.70
2019-04-03T20:27:09.298Z,6.60
2019-04-03T20:29:40.227Z,6.50
2019-04-03T20:32:10.784Z,6.50
2019-04-03T20:34:44.415Z,6.30
2019-04-03T20:37:13.489Z,6.40
2019-04-03T20:39:44.753Z,6.50
2019-04-03T20:42:15.399Z,6.50
2019-04-03T20:44:47.814Z,6.60
2019-04-03T20:47:17.716Z,6.60
2019-04-03T20:49:47.898Z,6.60
2019-04-03T20:52:20.253Z,6.70
2019-04-03T20:54:52.940Z,6.70
2019-04-03T20:57:23.849Z,6.70
2019-04-03T21:00:01.839Z,6.70
2019-04-03T21:02:28.187Z,6.60
2019-04-03T21:04:58.563Z,6.50
2019-04-03T21:07:28.955Z,6.30
2019-04-03T21:10:01.593Z,6.40
2019-04-03T21:12:42.399Z,6.50
2019-04-03T21:15:52.511Z,6.50
2019-04-03T21:18:23.719Z,6.60
2019-04-03T21:20:55.335Z,6.40
2019-04-03T21:23:25.921Z,6.30
2019-04-03T21:25:56.517Z,6.30
2019-04-03T21:28:27.144Z,6.40
2019-04-03T21:30:57.904Z,6.50
2019-04-03T21:33:57.618Z,6.60
2019-04-03T21:37:52.581Z,6.70
2019-04-03T21:41:05.546Z,6.70
2019-04-03T21:43:35.703Z,6.70
2019-04-03T21:46:25.090Z,6.60
2019-04-03T21:48:55.743Z,6.60
2019-04-03T21:51:25.880Z,6.40
2019-04-03T21:53:56.582Z,6.40
2019-04-03T21:56:32.697Z,6.40
2019-04-03T21:59:03.343Z,6.50
2019-04-03T22:01:33.625Z,6.50
2019-04-03T22:04:03.933Z,6.60
2019-04-03T22:06:33.915Z,6.80
2019-04-03T22:09:10.663Z,6.80
2019-04-03T22:11:40.604Z,6.90
2019-04-03T22:14:11.056Z,6.80
2019-04-03T22:16:45.419Z,6.80
2019-04-03T22:19:15.684Z,6.70
2019-04-03T22:21:45.742Z,6.80
2019-04-03T22:24:15.678Z,6.70
2019-04-03T22:26:45.550Z,6.70
2019-04-03T22:29:19.787Z,6.60
2019-04-03T22:31:48.184Z,6.60
2019-04-03T22:34:18.141Z,6.60
2019-04-03T22:36:47.969Z,6.50
2019-04-03T22:39:17.867Z,6.40
2019-04-03T22:41:47.747Z,6.30
2019-04-03T22:44:17.797Z,6.30
2019-04-03T22:46:47.609Z,6.30
2019-04-03T22:49:17.758Z,6.20
2019-04-03T22:51:47.739Z,6.20
2019-04-03T22:54:17.947Z,6.30
2019-04-03T22:56:48.356Z,6.30
2019-04-03T22:59:18.494Z,6.40
2019-04-03T23:01:48.251Z,6.40
2019-04-03T23:04:18.432Z,6.30
2019-04-03T23:06:49.732Z,6.20
2019-04-03T23:09:20.323Z,6.20
2019-04-03T23:11:50.257Z,6.30
2019-04-03T23:14:20.267Z,6.30
2019-04-03T23:16:50.287Z,6.40
2019-04-03T23:19:21.112Z,6.50
2019-04-03T23:21:51.032Z,6.50
2019-04-03T23:24:20.966Z,6.40
2019-04-03T23:26:50.950Z,6.50
2019-04-03T23:29:20.904Z,6.50
2019-04-03T23:31:50.796Z,6.60
2019-04-03T23:34:20.755Z,6.60
2019-04-03T23:36:50.607Z,6.70
2019-04-03T23:39:20.517Z,6.70
2019-04-03T23:41:50.339Z,6.60
2019-04-03T23:44:20.610Z,6.50
2019-04-03T23:46:50.724Z,6.40
2019-04-03T23:49:24.187Z,6.30
2019-04-03T23:51:54.141Z,6.30
2019-04-03T23:54:24.117Z,6.20
2019-04-03T23:56:54.035Z,6.20
2019-04-03T23:59:23.933Z,6.30
